sensor_id;sensor_type;location;lat;lon;timestamp;P1;durP1;ratioP1;P2;durP2;ratioP2
23561;SDS011;11959;49.418;8.728;2024-02-28T00:00:26;17.67;;;11.85;;
23561;SDS011;11959;49.418;8.728;2024-02-28T00:02:52;19.73;;;12.50;;
23561;SDS011;11959;49.418;8.728;2024-02-28T00:05:18;19.35;;;12.98;;
23561;SDS011;11959;49.418;8.728;2024-02-28T00:07:44;17.67;;;12.68;;
23561;SDS011;11959;49.418;8.728;2024-02-28T00:10:11;17.58;;;12.48;;
23561;SDS011;11959;49.418;8.728;2024-02-28T00:12:36;19.27;;;13.07;;
23561;SDS011;11959;49.418;8.728;2024-02-28T00:15:04;18.85;;;13.38;;
23561;SDS011;11959;49.418;8.728;2024-02-28T00:17:30;20.58;;;12.68;;
23561;SDS011;11959;49.418;8.728;2024-02-28T00:19:56;19.98;;;12.95;;
23561;SDS011;11959;49.418;8.728;2024-02-28T00:22:21;18.42;;;11.63;;
23561;SDS011;11959;49.418;8.728;2024-02-28T00:24:47;17.02;;;11.60;;
23561;SDS011;11959;49.418;8.728;2024-02-28T00:27:13;15.00;;;9.93;;
23561;SDS011;11959;49.418;8.728;2024-02-28T00:29:38;14.25;;;10.02;;
23561;SDS011;11959;49.418;8.728;2024-02-28T00:32:04;14.10;;;9.95;;
23561;SDS011;11959;49.418;8.728;2024-02-28T00:34:30;15.23;;;10.25;;
23561;SDS011;11959;49.418;8.728;2024-02-28T00:36:56;15.80;;;10.15;;
23561;SDS011;11959;49.418;8.728;2024-02-28T00:39:21;14.68;;;9.73;;
23561;SDS011;11959;49.418;8.728;2024-02-28T00:41:47;15.43;;;10.02;;
23561;SDS011;11959;49.418;8.728;2024-02-28T00:44:13;14.15;;;9.00;;
23561;SDS011;11959;49.418;8.728;2024-02-28T00:46:39;15.02;;;9.13;;
23561;SDS011;11959;49.418;8.728;2024-02-28T00:49:05;15.90;;;9.82;;
23561;SDS011;11959;49.418;8.728;2024-02-28T00:51:30;14.43;;;9.40;;
23561;SDS011;11959;49.418;8.728;2024-02-28T00:53:56;15.65;;;9.25;;
23561;SDS011;11959;49.418;8.728;2024-02-28T00:56:22;12.65;;;9.18;;
23561;SDS011;11959;49.418;8.728;2024-02-28T00:58:49;15.07;;;9.77;;
23561;SDS011;11959;49.418;8.728;2024-02-28T01:01:15;13.60;;;9.02;;
23561;SDS011;11959;49.418;8.728;2024-02-28T01:03:40;14.07;;;9.50;;
23561;SDS011;11959;49.418;8.728;2024-02-28T01:06:06;14.93;;;9.68;;
23561;SDS011;11959;49.418;8.728;2024-02-28T01:08:31;15.80;;;9.88;;
23561;SDS011;11959;49.418;8.728;2024-02-28T01:10:57;14.85;;;9.55;;
23561;SDS011;11959;49.418;8.728;2024-02-28T01:13:24;13.70;;;9.32;;
23561;SDS011;11959;49.418;8.728;2024-02-28T01:15:49;15.95;;;9.73;;
23561;SDS011;11959;49.418;8.728;2024-02-28T01:18:15;12.85;;;8.23;;
23561;SDS011;11959;49.418;8.728;2024-02-28T01:20:41;13.77;;;9.80;;
23561;SDS011;11959;49.418;8.728;2024-02-28T01:23:06;15.48;;;9.40;;
23561;SDS011;11959;49.418;8.728;2024-02-28T01:25:32;14.02;;;9.27;;
23561;SDS011;11959;49.418;8.728;2024-02-28T01:27:58;13.18;;;9.00;;
23561;SDS011;11959;49.418;8.728;2024-02-28T01:30:24;15.02;;;9.45;;
23561;SDS011;11959;49.418;8.728;2024-02-28T01:32:50;14.20;;;9.45;;
23561;SDS011;11959;49.418;8.728;2024-02-28T01:35:16;16.17;;;10.38;;
23561;SDS011;11959;49.418;8.728;2024-02-28T01:37:41;15.88;;;9.73;;
23561;SDS011;11959;49.418;8.728;2024-02-28T01:40:07;15.00;;;10.15;;
23561;SDS011;11959;49.418;8.728;2024-02-28T01:42:33;14.48;;;9.63;;
23561;SDS011;11959;49.418;8.728;2024-02-28T01:44:59;14.32;;;9.63;;
23561;SDS011;11959;49.418;8.728;2024-02-28T01:47:24;12.30;;;8.75;;
23561;SDS011;11959;49.418;8.728;2024-02-28T01:49:51;15.88;;;10.10;;
23561;SDS011;11959;49.418;8.728;2024-02-28T01:52:19;19.92;;;10.75;;
23561;SDS011;11959;49.418;8.728;2024-02-28T01:54:45;14.75;;;10.35;;
23561;SDS011;11959;49.418;8.728;2024-02-28T01:57:11;13.73;;;9.93;;
23561;SDS011;11959;49.418;8.728;2024-02-28T01:59:38;14.93;;;9.68;;
23561;SDS011;11959;49.418;8.728;2024-02-28T02:02:03;13.90;;;9.93;;
23561;SDS011;11959;49.418;8.728;2024-02-28T02:04:29;15.90;;;10.07;;
23561;SDS011;11959;49.418;8.728;2024-02-28T02:06:55;15.90;;;10.60;;
23561;SDS011;11959;49.418;8.728;2024-02-28T02:09:23;14.90;;;10.02;;
23561;SDS011;11959;49.418;8.728;2024-02-28T02:11:50;15.63;;;10.38;;
23561;SDS011;11959;49.418;8.728;2024-02-28T02:14:16;14.23;;;9.88;;
23561;SDS011;11959;49.418;8.728;2024-02-28T02:16:41;16.63;;;10.18;;
23561;SDS011;11959;49.418;8.728;2024-02-28T02:19:08;15.88;;;9.93;;
23561;SDS011;11959;49.418;8.728;2024-02-28T02:21:37;13.80;;;9.82;;
23561;SDS011;11959;49.418;8.728;2024-02-28T02:24:17;16.67;;;9.55;;
23561;SDS011;11959;49.418;8.728;2024-02-28T02:26:42;14.10;;;9.05;;
23561;SDS011;11959;49.418;8.728;2024-02-28T02:29:10;14.50;;;9.95;;
23561;SDS011;11959;49.418;8.728;2024-02-28T02:31:36;20.38;;;10.80;;
23561;SDS011;11959;49.418;8.728;2024-02-28T02:34:02;15.27;;;10.18;;
23561;SDS011;11959;49.418;8.728;2024-02-28T02:36:27;19.52;;;10.77;;
23561;SDS011;11959;49.418;8.728;2024-02-28T02:38:53;14.70;;;10.43;;
23561;SDS011;11959;49.418;8.728;2024-02-28T02:41:18;13.65;;;9.70;;
23561;SDS011;11959;49.418;8.728;2024-02-28T02:43:44;14.88;;;10.10;;
23561;SDS011;11959;49.418;8.728;2024-02-28T02:46:10;17.83;;;9.93;;
23561;SDS011;11959;49.418;8.728;2024-02-28T02:48:35;17.00;;;10.93;;
23561;SDS011;11959;49.418;8.728;2024-02-28T02:51:01;17.45;;;11.15;;
23561;SDS011;11959;49.418;8.728;2024-02-28T02:53:27;17.88;;;10.73;;
23561;SDS011;11959;49.418;8.728;2024-02-28T02:55:53;18.50;;;10.93;;
23561;SDS011;11959;49.418;8.728;2024-02-28T02:58:19;14.38;;;9.85;;
23561;SDS011;11959;49.418;8.728;2024-02-28T03:00:44;14.25;;;9.82;;
23561;SDS011;11959;49.418;8.728;2024-02-28T03:03:10;14.45;;;10.23;;
23561;SDS011;11959;49.418;8.728;2024-02-28T03:05:35;17.02;;;10.60;;
23561;SDS011;11959;49.418;8.728;2024-02-28T03:08:01;17.35;;;11.15;;
23561;SDS011;11959;49.418;8.728;2024-02-28T03:10:27;15.85;;;10.10;;
23561;SDS011;11959;49.418;8.728;2024-02-28T03:12:53;15.93;;;10.35;;
23561;SDS011;11959;49.418;8.728;2024-02-28T03:15:19;14.82;;;10.20;;
23561;SDS011;11959;49.418;8.728;2024-02-28T03:17:45;17.45;;;10.95;;
23561;SDS011;11959;49.418;8.728;2024-02-28T03:20:11;16.33;;;11.45;;
23561;SDS011;11959;49.418;8.728;2024-02-28T03:22:39;17.65;;;11.02;;
23561;SDS011;11959;49.418;8.728;2024-02-28T03:25:05;18.15;;;10.23;;
23561;SDS011;11959;49.418;8.728;2024-02-28T03:27:31;14.70;;;10.00;;
23561;SDS011;11959;49.418;8.728;2024-02-28T03:29:57;18.08;;;11.18;;
23561;SDS011;11959;49.418;8.728;2024-02-28T03:32:23;14.68;;;10.15;;
23561;SDS011;11959;49.418;8.728;2024-02-28T03:34:48;15.45;;;9.52;;
23561;SDS011;11959;49.418;8.728;2024-02-28T03:37:15;14.68;;;9.23;;
23561;SDS011;11959;49.418;8.728;2024-02-28T03:39:41;15.75;;;10.75;;
23561;SDS011;11959;49.418;8.728;2024-02-28T03:42:06;16.83;;;10.68;;
23561;SDS011;11959;49.418;8.728;2024-02-28T03:44:32;16.65;;;10.77;;
23561;SDS011;11959;49.418;8.728;2024-02-28T03:46:58;16.98;;;11.70;;
23561;SDS011;11959;49.418;8.728;2024-02-28T03:49:23;15.90;;;11.15;;
23561;SDS011;11959;49.418;8.728;2024-02-28T03:51:49;19.65;;;11.30;;
23561;SDS011;11959;49.418;8.728;2024-02-28T03:54:15;16.95;;;10.88;;
23561;SDS011;11959;49.418;8.728;2024-02-28T03:56:40;17.73;;;11.20;;
23561;SDS011;11959;49.418;8.728;2024-02-28T03:59:06;18.55;;;11.63;;
23561;SDS011;11959;49.418;8.728;2024-02-28T04:01:31;18.45;;;11.93;;
23561;SDS011;11959;49.418;8.728;2024-02-28T04:03:57;17.13;;;11.95;;
23561;SDS011;11959;49.418;8.728;2024-02-28T04:06:23;19.00;;;12.35;;
23561;SDS011;11959;49.418;8.728;2024-02-28T04:08:49;18.23;;;11.73;;
23561;SDS011;11959;49.418;8.728;2024-02-28T04:11:14;18.30;;;11.65;;
23561;SDS011;11959;49.418;8.728;2024-02-28T04:13:40;19.25;;;11.85;;
23561;SDS011;11959;49.418;8.728;2024-02-28T04:16:07;19.17;;;11.90;;
23561;SDS011;11959;49.418;8.728;2024-02-28T04:18:34;19.38;;;11.82;;
23561;SDS011;11959;49.418;8.728;2024-02-28T04:21:00;18.23;;;11.20;;
23561;SDS011;11959;49.418;8.728;2024-02-28T04:23:26;20.88;;;11.68;;
23561;SDS011;11959;49.418;8.728;2024-02-28T04:25:51;17.55;;;11.55;;
23561;SDS011;11959;49.418;8.728;2024-02-28T04:28:17;16.98;;;11.40;;
23561;SDS011;11959;49.418;8.728;2024-02-28T04:30:43;16.85;;;11.25;;
23561;SDS011;11959;49.418;8.728;2024-02-28T04:33:08;15.52;;;11.18;;
23561;SDS011;11959;49.418;8.728;2024-02-28T04:35:34;15.65;;;11.10;;
23561;SDS011;11959;49.418;8.728;2024-02-28T04:38:01;18.55;;;10.82;;
23561;SDS011;11959;49.418;8.728;2024-02-28T04:40:26;16.80;;;11.40;;
23561;SDS011;11959;49.418;8.728;2024-02-28T04:42:52;18.60;;;10.85;;
23561;SDS011;11959;49.418;8.728;2024-02-28T04:45:18;21.08;;;12.10;;
23561;SDS011;11959;49.418;8.728;2024-02-28T04:47:43;18.13;;;11.10;;
23561;SDS011;11959;49.418;8.728;2024-02-28T04:50:09;21.35;;;12.30;;
23561;SDS011;11959;49.418;8.728;2024-02-28T04:52:35;20.58;;;12.52;;
23561;SDS011;11959;49.418;8.728;2024-02-28T04:55:01;17.83;;;12.35;;
23561;SDS011;11959;49.418;8.728;2024-02-28T04:57:27;21.00;;;13.73;;
23561;SDS011;11959;49.418;8.728;2024-02-28T04:59:52;21.45;;;13.52;;
23561;SDS011;11959;49.418;8.728;2024-02-28T05:02:18;19.33;;;12.10;;
23561;SDS011;11959;49.418;8.728;2024-02-28T05:04:44;19.75;;;12.02;;
23561;SDS011;11959;49.418;8.728;2024-02-28T05:07:10;20.40;;;12.30;;
23561;SDS011;11959;49.418;8.728;2024-02-28T05:09:35;21.10;;;12.35;;
23561;SDS011;11959;49.418;8.728;2024-02-28T05:12:01;23.60;;;12.68;;
23561;SDS011;11959;49.418;8.728;2024-02-28T05:14:27;21.90;;;13.35;;
23561;SDS011;11959;49.418;8.728;2024-02-28T05:16:53;23.90;;;14.43;;
23561;SDS011;11959;49.418;8.728;2024-02-28T05:19:18;24.95;;;13.95;;
23561;SDS011;11959;49.418;8.728;2024-02-28T05:21:44;22.55;;;13.45;;
23561;SDS011;11959;49.418;8.728;2024-02-28T05:24:10;22.65;;;13.98;;
23561;SDS011;11959;49.418;8.728;2024-02-28T05:26:37;22.25;;;13.60;;
23561;SDS011;11959;49.418;8.728;2024-02-28T05:29:03;23.08;;;14.80;;
23561;SDS011;11959;49.418;8.728;2024-02-28T05:31:30;23.05;;;13.88;;
23561;SDS011;11959;49.418;8.728;2024-02-28T05:33:59;22.48;;;13.38;;
23561;SDS011;11959;49.418;8.728;2024-02-28T05:36:29;22.27;;;13.23;;
23561;SDS011;11959;49.418;8.728;2024-02-28T05:38:55;21.90;;;12.55;;
23561;SDS011;11959;49.418;8.728;2024-02-28T05:41:22;22.20;;;13.50;;
23561;SDS011;11959;49.418;8.728;2024-02-28T05:43:49;21.80;;;13.68;;
23561;SDS011;11959;49.418;8.728;2024-02-28T05:46:15;21.25;;;12.82;;
23561;SDS011;11959;49.418;8.728;2024-02-28T05:48:41;23.10;;;13.10;;
23561;SDS011;11959;49.418;8.728;2024-02-28T05:51:08;20.77;;;13.77;;
23561;SDS011;11959;49.418;8.728;2024-02-28T05:53:34;21.77;;;13.35;;
23561;SDS011;11959;49.418;8.728;2024-02-28T05:56:06;21.40;;;13.45;;
23561;SDS011;11959;49.418;8.728;2024-02-28T05:58:48;24.30;;;14.38;;
23561;SDS011;11959;49.418;8.728;2024-02-28T06:01:16;20.90;;;13.07;;
23561;SDS011;11959;49.418;8.728;2024-02-28T06:03:45;22.90;;;14.40;;
23561;SDS011;11959;49.418;8.728;2024-02-28T06:06:11;23.23;;;13.18;;
23561;SDS011;11959;49.418;8.728;2024-02-28T06:08:38;19.83;;;12.88;;
23561;SDS011;11959;49.418;8.728;2024-02-28T06:11:05;21.05;;;13.05;;
23561;SDS011;11959;49.418;8.728;2024-02-28T06:13:30;22.48;;;13.90;;
23561;SDS011;11959;49.418;8.728;2024-02-28T06:15:56;23.75;;;13.93;;
23561;SDS011;11959;49.418;8.728;2024-02-28T06:18:23;21.42;;;13.65;;
23561;SDS011;11959;49.418;8.728;2024-02-28T06:20:52;21.52;;;14.02;;
23561;SDS011;11959;49.418;8.728;2024-02-28T06:23:19;23.45;;;14.13;;
23561;SDS011;11959;49.418;8.728;2024-02-28T06:25:45;26.88;;;14.85;;
23561;SDS011;11959;49.418;8.728;2024-02-28T06:28:10;25.67;;;14.52;;
23561;SDS011;11959;49.418;8.728;2024-02-28T06:30:36;30.27;;;16.30;;
23561;SDS011;11959;49.418;8.728;2024-02-28T06:33:02;24.20;;;14.75;;
23561;SDS011;11959;49.418;8.728;2024-02-28T06:35:28;25.15;;;15.15;;
23561;SDS011;11959;49.418;8.728;2024-02-28T06:37:53;25.92;;;15.55;;
23561;SDS011;11959;49.418;8.728;2024-02-28T06:40:19;24.00;;;13.82;;
23561;SDS011;11959;49.418;8.728;2024-02-28T06:42:45;26.58;;;15.65;;
23561;SDS011;11959;49.418;8.728;2024-02-28T06:45:11;27.70;;;16.13;;
23561;SDS011;11959;49.418;8.728;2024-02-28T06:47:36;27.58;;;16.25;;
23561;SDS011;11959;49.418;8.728;2024-02-28T06:50:04;24.70;;;15.23;;
23561;SDS011;11959;49.418;8.728;2024-02-28T06:52:31;27.42;;;15.38;;
23561;SDS011;11959;49.418;8.728;2024-02-28T06:54:57;24.95;;;15.10;;
23561;SDS011;11959;49.418;8.728;2024-02-28T06:57:23;23.77;;;15.25;;
23561;SDS011;11959;49.418;8.728;2024-02-28T06:59:48;25.25;;;15.35;;
23561;SDS011;11959;49.418;8.728;2024-02-28T07:02:14;26.00;;;15.05;;
23561;SDS011;11959;49.418;8.728;2024-02-28T07:04:40;24.75;;;13.80;;
23561;SDS011;11959;49.418;8.728;2024-02-28T07:07:07;24.98;;;14.38;;
23561;SDS011;11959;49.418;8.728;2024-02-28T07:09:32;26.25;;;15.68;;
23561;SDS011;11959;49.418;8.728;2024-02-28T07:11:58;24.55;;;14.35;;
23561;SDS011;11959;49.418;8.728;2024-02-28T07:14:25;25.10;;;14.63;;
23561;SDS011;11959;49.418;8.728;2024-02-28T07:16:52;25.13;;;15.80;;
23561;SDS011;11959;49.418;8.728;2024-02-28T07:19:18;26.33;;;15.93;;
23561;SDS011;11959;49.418;8.728;2024-02-28T07:21:44;30.10;;;17.00;;
23561;SDS011;11959;49.418;8.728;2024-02-28T07:24:10;25.42;;;15.45;;
23561;SDS011;11959;49.418;8.728;2024-02-28T07:26:35;28.85;;;16.35;;
23561;SDS011;11959;49.418;8.728;2024-02-28T07:29:01;29.90;;;17.15;;
23561;SDS011;11959;49.418;8.728;2024-02-28T07:31:27;28.50;;;16.23;;
23561;SDS011;11959;49.418;8.728;2024-02-28T07:33:53;29.60;;;17.05;;
23561;SDS011;11959;49.418;8.728;2024-02-28T07:36:19;31.98;;;16.50;;
23561;SDS011;11959;49.418;8.728;2024-02-28T07:38:45;28.73;;;16.38;;
23561;SDS011;11959;49.418;8.728;2024-02-28T07:41:11;31.20;;;16.75;;
23561;SDS011;11959;49.418;8.728;2024-02-28T07:43:36;28.95;;;16.48;;
23561;SDS011;11959;49.418;8.728;2024-02-28T07:46:12;27.88;;;16.73;;
23561;SDS011;11959;49.418;8.728;2024-02-28T07:48:38;30.25;;;16.92;;
23561;SDS011;11959;49.418;8.728;2024-02-28T07:51:07;29.35;;;16.50;;
23561;SDS011;11959;49.418;8.728;2024-02-28T07:53:33;30.15;;;16.88;;
23561;SDS011;11959;49.418;8.728;2024-02-28T07:55:59;26.88;;;15.45;;
23561;SDS011;11959;49.418;8.728;2024-02-28T07:58:25;29.17;;;17.23;;
23561;SDS011;11959;49.418;8.728;2024-02-28T08:00:50;26.58;;;15.90;;
23561;SDS011;11959;49.418;8.728;2024-02-28T08:03:19;26.48;;;16.02;;
23561;SDS011;11959;49.418;8.728;2024-02-28T08:05:45;28.65;;;16.17;;
23561;SDS011;11959;49.418;8.728;2024-02-28T08:08:12;27.08;;;16.33;;
23561;SDS011;11959;49.418;8.728;2024-02-28T08:10:38;26.13;;;15.55;;
23561;SDS011;11959;49.418;8.728;2024-02-28T08:13:04;31.52;;;17.27;;
23561;SDS011;11959;49.418;8.728;2024-02-28T08:15:30;28.27;;;17.23;;
23561;SDS011;11959;49.418;8.728;2024-02-28T08:17:57;31.63;;;17.65;;
23561;SDS011;11959;49.418;8.728;2024-02-28T08:20:23;27.90;;;16.45;;
23561;SDS011;11959;49.418;8.728;2024-02-28T08:22:49;29.95;;;17.27;;
23561;SDS011;11959;49.418;8.728;2024-02-28T08:25:15;28.90;;;17.23;;
23561;SDS011;11959;49.418;8.728;2024-02-28T08:27:41;25.88;;;16.67;;
23561;SDS011;11959;49.418;8.728;2024-02-28T08:30:07;31.48;;;18.17;;
23561;SDS011;11959;49.418;8.728;2024-02-28T08:32:33;30.42;;;17.65;;
23561;SDS011;11959;49.418;8.728;2024-02-28T08:34:58;33.72;;;18.25;;
23561;SDS011;11959;49.418;8.728;2024-02-28T08:37:25;33.58;;;19.67;;
23561;SDS011;11959;49.418;8.728;2024-02-28T08:39:53;31.33;;;19.50;;
23561;SDS011;11959;49.418;8.728;2024-02-28T08:42:22;31.30;;;19.13;;
23561;SDS011;11959;49.418;8.728;2024-02-28T08:44:51;32.63;;;19.65;;
23561;SDS011;11959;49.418;8.728;2024-02-28T08:47:22;35.38;;;20.02;;
23561;SDS011;11959;49.418;8.728;2024-02-28T08:49:48;31.77;;;19.40;;
23561;SDS011;11959;49.418;8.728;2024-02-28T08:52:14;35.08;;;20.13;;
23561;SDS011;11959;49.418;8.728;2024-02-28T08:54:39;34.55;;;20.48;;
23561;SDS011;11959;49.418;8.728;2024-02-28T08:57:05;34.33;;;20.02;;
23561;SDS011;11959;49.418;8.728;2024-02-28T08:59:30;33.80;;;20.85;;
23561;SDS011;11959;49.418;8.728;2024-02-28T09:01:56;30.30;;;18.25;;
23561;SDS011;11959;49.418;8.728;2024-02-28T09:04:22;33.95;;;18.95;;
23561;SDS011;11959;49.418;8.728;2024-02-28T09:06:47;37.03;;;21.40;;
23561;SDS011;11959;49.418;8.728;2024-02-28T09:09:13;39.13;;;22.80;;
23561;SDS011;11959;49.418;8.728;2024-02-28T09:11:39;37.17;;;21.17;;
23561;SDS011;11959;49.418;8.728;2024-02-28T09:14:04;36.80;;;20.70;;
23561;SDS011;11959;49.418;8.728;2024-02-28T09:16:30;35.53;;;20.65;;
23561;SDS011;11959;49.418;8.728;2024-02-28T09:18:56;38.67;;;21.42;;
23561;SDS011;11959;49.418;8.728;2024-02-28T09:21:21;37.95;;;22.00;;
23561;SDS011;11959;49.418;8.728;2024-02-28T09:23:47;37.38;;;22.25;;
23561;SDS011;11959;49.418;8.728;2024-02-28T09:26:13;37.28;;;22.65;;
23561;SDS011;11959;49.418;8.728;2024-02-28T09:28:38;40.50;;;23.35;;
23561;SDS011;11959;49.418;8.728;2024-02-28T09:31:04;42.15;;;21.65;;
23561;SDS011;11959;49.418;8.728;2024-02-28T09:33:30;39.08;;;21.65;;
23561;SDS011;11959;49.418;8.728;2024-02-28T09:35:55;37.83;;;21.50;;
23561;SDS011;11959;49.418;8.728;2024-02-28T09:38:21;37.80;;;21.58;;
23561;SDS011;11959;49.418;8.728;2024-02-28T09:40:47;40.33;;;22.70;;
23561;SDS011;11959;49.418;8.728;2024-02-28T09:43:15;36.03;;;22.00;;
23561;SDS011;11959;49.418;8.728;2024-02-28T09:45:49;39.45;;;21.63;;
23561;SDS011;11959;49.418;8.728;2024-02-28T09:48:16;37.45;;;22.38;;
23561;SDS011;11959;49.418;8.728;2024-02-28T09:50:43;37.50;;;22.23;;
23561;SDS011;11959;49.418;8.728;2024-02-28T09:53:09;42.50;;;22.95;;
23561;SDS011;11959;49.418;8.728;2024-02-28T09:55:35;41.85;;;23.40;;
23561;SDS011;11959;49.418;8.728;2024-02-28T09:58:02;36.22;;;20.92;;
23561;SDS011;11959;49.418;8.728;2024-02-28T10:00:28;41.95;;;21.80;;
23561;SDS011;11959;49.418;8.728;2024-02-28T10:02:54;39.95;;;22.15;;
23561;SDS011;11959;49.418;8.728;2024-02-28T10:05:22;45.05;;;22.73;;
23561;SDS011;11959;49.418;8.728;2024-02-28T10:07:51;37.97;;;21.92;;
23561;SDS011;11959;49.418;8.728;2024-02-28T10:10:18;39.85;;;22.23;;
23561;SDS011;11959;49.418;8.728;2024-02-28T10:12:44;33.80;;;19.70;;
23561;SDS011;11959;49.418;8.728;2024-02-28T10:15:10;33.75;;;20.58;;
23561;SDS011;11959;49.418;8.728;2024-02-28T10:17:36;35.35;;;20.88;;
23561;SDS011;11959;49.418;8.728;2024-02-28T10:20:02;36.78;;;20.13;;
23561;SDS011;11959;49.418;8.728;2024-02-28T10:22:37;34.15;;;20.23;;
23561;SDS011;11959;49.418;8.728;2024-02-28T10:25:03;31.95;;;19.60;;
23561;SDS011;11959;49.418;8.728;2024-02-28T10:27:31;34.90;;;19.50;;
23561;SDS011;11959;49.418;8.728;2024-02-28T10:29:57;33.28;;;19.95;;
23561;SDS011;11959;49.418;8.728;2024-02-28T10:32:23;32.33;;;19.90;;
23561;SDS011;11959;49.418;8.728;2024-02-28T10:34:49;36.65;;;19.95;;
23561;SDS011;11959;49.418;8.728;2024-02-28T10:37:15;30.95;;;18.70;;
23561;SDS011;11959;49.418;8.728;2024-02-28T10:39:42;30.48;;;18.90;;
23561;SDS011;11959;49.418;8.728;2024-02-28T10:42:09;31.88;;;20.02;;
23561;SDS011;11959;49.418;8.728;2024-02-28T10:44:37;32.35;;;19.23;;
23561;SDS011;11959;49.418;8.728;2024-02-28T10:47:05;32.83;;;19.08;;
23561;SDS011;11959;49.418;8.728;2024-02-28T10:49:33;29.80;;;18.27;;
23561;SDS011;11959;49.418;8.728;2024-02-28T10:51:59;31.27;;;19.58;;
23561;SDS011;11959;49.418;8.728;2024-02-28T10:54:28;29.05;;;17.80;;
23561;SDS011;11959;49.418;8.728;2024-02-28T10:56:56;30.15;;;18.02;;
23561;SDS011;11959;49.418;8.728;2024-02-28T10:59:23;33.97;;;19.60;;
23561;SDS011;11959;49.418;8.728;2024-02-28T11:01:50;29.15;;;19.23;;
23561;SDS011;11959;49.418;8.728;2024-02-28T11:04:16;35.13;;;20.00;;
23561;SDS011;11959;49.418;8.728;2024-02-28T11:06:49;30.10;;;19.27;;
23561;SDS011;11959;49.418;8.728;2024-02-28T11:09:20;31.52;;;18.52;;
23561;SDS011;11959;49.418;8.728;2024-02-28T11:11:50;31.63;;;19.48;;
23561;SDS011;11959;49.418;8.728;2024-02-28T11:14:17;32.10;;;18.70;;
23561;SDS011;11959;49.418;8.728;2024-02-28T11:16:46;30.60;;;18.92;;
23561;SDS011;11959;49.418;8.728;2024-02-28T11:19:21;29.10;;;18.42;;
23561;SDS011;11959;49.418;8.728;2024-02-28T11:21:53;32.13;;;19.58;;
23561;SDS011;11959;49.418;8.728;2024-02-28T11:24:22;31.13;;;18.88;;
23561;SDS011;11959;49.418;8.728;2024-02-28T11:26:58;32.40;;;19.83;;
23561;SDS011;11959;49.418;8.728;2024-02-28T11:29:24;31.13;;;18.02;;
23561;SDS011;11959;49.418;8.728;2024-02-28T11:31:51;33.33;;;19.13;;
23561;SDS011;11959;49.418;8.728;2024-02-28T11:34:18;29.73;;;17.83;;
23561;SDS011;11959;49.418;8.728;2024-02-28T11:36:48;26.30;;;16.45;;
23561;SDS011;11959;49.418;8.728;2024-02-28T11:39:14;27.73;;;18.05;;
23561;SDS011;11959;49.418;8.728;2024-02-28T11:41:40;31.33;;;19.33;;
23561;SDS011;11959;49.418;8.728;2024-02-28T11:44:06;32.05;;;18.45;;
23561;SDS011;11959;49.418;8.728;2024-02-28T11:46:32;30.00;;;19.20;;
23561;SDS011;11959;49.418;8.728;2024-02-28T11:48:58;31.02;;;18.42;;
23561;SDS011;11959;49.418;8.728;2024-02-28T11:51:26;29.65;;;18.20;;
23561;SDS011;11959;49.418;8.728;2024-02-28T11:53:51;28.02;;;17.60;;
23561;SDS011;11959;49.418;8.728;2024-02-28T11:56:17;27.75;;;16.88;;
23561;SDS011;11959;49.418;8.728;2024-02-28T11:58:49;26.08;;;16.40;;
23561;SDS011;11959;49.418;8.728;2024-02-28T12:01:16;27.95;;;16.88;;
23561;SDS011;11959;49.418;8.728;2024-02-28T12:03:44;29.08;;;17.42;;
23561;SDS011;11959;49.418;8.728;2024-02-28T12:06:11;27.55;;;17.20;;
23561;SDS011;11959;49.418;8.728;2024-02-28T12:08:37;31.55;;;17.30;;
23561;SDS011;11959;49.418;8.728;2024-02-28T12:11:06;27.45;;;17.08;;
23561;SDS011;11959;49.418;8.728;2024-02-28T12:13:32;26.98;;;16.80;;
23561;SDS011;11959;49.418;8.728;2024-02-28T12:15:58;25.73;;;16.05;;
23561;SDS011;11959;49.418;8.728;2024-02-28T12:18:25;24.85;;;16.75;;
23561;SDS011;11959;49.418;8.728;2024-02-28T12:20:52;27.20;;;17.17;;
23561;SDS011;11959;49.418;8.728;2024-02-28T12:23:18;25.20;;;16.02;;
23561;SDS011;11959;49.418;8.728;2024-02-28T12:25:43;24.90;;;15.65;;
23561;SDS011;11959;49.418;8.728;2024-02-28T12:28:09;26.88;;;16.65;;
23561;SDS011;11959;49.418;8.728;2024-02-28T12:30:40;27.23;;;17.33;;
23561;SDS011;11959;49.418;8.728;2024-02-28T12:33:12;25.50;;;16.35;;
23561;SDS011;11959;49.418;8.728;2024-02-28T12:38:08;22.80;;;15.13;;
23561;SDS011;11959;49.418;8.728;2024-02-28T12:40:34;24.25;;;15.45;;
23561;SDS011;11959;49.418;8.728;2024-02-28T12:43:00;25.95;;;15.80;;
23561;SDS011;11959;49.418;8.728;2024-02-28T12:45:25;24.90;;;15.95;;
23561;SDS011;11959;49.418;8.728;2024-02-28T12:47:51;24.23;;;15.55;;
23561;SDS011;11959;49.418;8.728;2024-02-28T12:50:18;23.92;;;15.18;;
23561;SDS011;11959;49.418;8.728;2024-02-28T12:52:46;23.50;;;14.75;;
23561;SDS011;11959;49.418;8.728;2024-02-28T12:55:15;23.17;;;14.82;;
23561;SDS011;11959;49.418;8.728;2024-02-28T12:57:41;23.65;;;15.30;;
23561;SDS011;11959;49.418;8.728;2024-02-28T13:00:06;25.23;;;15.95;;
23561;SDS011;11959;49.418;8.728;2024-02-28T13:02:33;22.75;;;15.07;;
23561;SDS011;11959;49.418;8.728;2024-02-28T13:04:58;25.83;;;15.98;;
23561;SDS011;11959;49.418;8.728;2024-02-28T13:07:24;24.27;;;15.57;;
23561;SDS011;11959;49.418;8.728;2024-02-28T13:09:50;22.92;;;15.40;;
23561;SDS011;11959;49.418;8.728;2024-02-28T13:12:15;24.23;;;15.13;;
23561;SDS011;11959;49.418;8.728;2024-02-28T13:14:41;25.65;;;15.65;;
23561;SDS011;11959;49.418;8.728;2024-02-28T13:17:07;24.33;;;14.60;;
23561;SDS011;11959;49.418;8.728;2024-02-28T13:19:32;22.48;;;15.55;;
23561;SDS011;11959;49.418;8.728;2024-02-28T13:21:58;22.17;;;14.85;;
23561;SDS011;11959;49.418;8.728;2024-02-28T13:24:24;20.50;;;14.85;;
23561;SDS011;11959;49.418;8.728;2024-02-28T13:26:49;23.83;;;15.57;;
23561;SDS011;11959;49.418;8.728;2024-02-28T13:29:15;23.85;;;14.82;;
23561;SDS011;11959;49.418;8.728;2024-02-28T13:31:41;23.13;;;15.60;;
23561;SDS011;11959;49.418;8.728;2024-02-28T13:34:06;23.75;;;15.27;;
23561;SDS011;11959;49.418;8.728;2024-02-28T13:36:32;25.20;;;15.20;;
23561;SDS011;11959;49.418;8.728;2024-02-28T13:39:01;23.17;;;15.38;;
23561;SDS011;11959;49.418;8.728;2024-02-28T13:41:28;22.80;;;14.50;;
23561;SDS011;11959;49.418;8.728;2024-02-28T13:43:53;21.90;;;14.32;;
23561;SDS011;11959;49.418;8.728;2024-02-28T13:46:19;20.17;;;13.98;;
23561;SDS011;11959;49.418;8.728;2024-02-28T13:48:45;22.80;;;14.82;;
23561;SDS011;11959;49.418;8.728;2024-02-28T13:51:12;23.80;;;15.52;;
23561;SDS011;11959;49.418;8.728;2024-02-28T13:53:38;22.77;;;15.05;;
23561;SDS011;11959;49.418;8.728;2024-02-28T13:56:04;20.63;;;13.90;;
23561;SDS011;11959;49.418;8.728;2024-02-28T13:58:30;20.95;;;13.98;;
23561;SDS011;11959;49.418;8.728;2024-02-28T14:00:56;20.98;;;13.98;;
23561;SDS011;11959;49.418;8.728;2024-02-28T14:03:21;20.38;;;13.98;;
23561;SDS011;11959;49.418;8.728;2024-02-28T14:05:48;24.55;;;14.95;;
23561;SDS011;11959;49.418;8.728;2024-02-28T14:08:14;20.80;;;13.60;;
23561;SDS011;11959;49.418;8.728;2024-02-28T14:10:39;18.77;;;13.10;;
23561;SDS011;11959;49.418;8.728;2024-02-28T14:13:05;17.73;;;12.10;;
23561;SDS011;11959;49.418;8.728;2024-02-28T14:15:31;21.02;;;14.48;;
23561;SDS011;11959;49.418;8.728;2024-02-28T14:17:56;19.85;;;13.50;;
23561;SDS011;11959;49.418;8.728;2024-02-28T14:20:22;19.48;;;12.73;;